TAM3938 SBSP-SBRJ
Flight info
| Callsign | TAM3938 |
|---|---|
| Flight time | 0h 36m |
| Altitude | 27000 |
| Route | NIBRU UZ171 KEVUN |
| Aircraft | A319/M-SDE3FGHIRWY/LB1 |
Departure
| Time | 2026-05-05 03:16 |
|---|---|
| Airport | Congonhas–Deputado Freitas Nobre Airport (SBSP) |
Arrival
| Time | 2026-05-05 03:52 |
|---|---|
| Airport | Santos Dumont Airport (SBRJ) |
| Time | Latitude | Longitude | Altitude | Speed | Heading |
|---|---|---|---|---|---|
| 2026-05-05 02:55 | -23.62816 | -46.65759 | 2624 ft | 0 kts | 237° |
| 2026-05-05 03:08 | -23.62809 | -46.65747 | 2624 ft | 3 kts | 237° |
| 2026-05-05 03:08 | -23.62798 | -46.65728 | 2624 ft | 3 kts | 237° |
| 2026-05-05 03:08 | -23.62789 | -46.65712 | 2624 ft | 3 kts | 253° |
| 2026-05-05 03:08 | -23.62786 | -46.65692 | 2624 ft | 3 kts | 287° |
| 2026-05-05 03:09 | -23.62795 | -46.65673 | 2624 ft | 3 kts | 310° |
| 2026-05-05 03:09 | -23.62809 | -46.65657 | 2625 ft | 3 kts | 322° |
| 2026-05-05 03:09 | -23.62826 | -46.65645 | 2626 ft | 3 kts | 327° |
| 2026-05-05 03:09 | -23.62841 | -46.65634 | 2626 ft | 3 kts | 327° |
| 2026-05-05 03:10 | -23.62859 | -46.65622 | 2626 ft | 3 kts | 327° |
| 2026-05-05 03:10 | -23.62867 | -46.65616 | 2626 ft | 1 kts | 327° |
| 2026-05-05 03:12 | -23.62858 | -46.65622 | 2626 ft | 4 kts | 327° |
| 2026-05-05 03:12 | -23.62830 | -46.65642 | 2626 ft | 8 kts | 327° |
| 2026-05-05 03:13 | -23.62572 | -46.65824 | 2616 ft | 82 kts | 327° |
| 2026-05-05 03:13 | -23.62404 | -46.65939 | 2609 ft | 1 kts | 329° |
| 2026-05-05 03:13 | -23.62385 | -46.65952 | 2608 ft | 4 kts | 329° |
| 2026-05-05 03:13 | -23.62317 | -46.65997 | 2606 ft | 13 kts | 328° |
| 2026-05-05 03:14 | -23.62225 | -46.66053 | 2603 ft | 17 kts | 332° |
| 2026-05-05 03:14 | -23.62129 | -46.66117 | 2589 ft | 14 kts | 328° |
| 2026-05-05 03:14 | -23.62051 | -46.66111 | 2593 ft | 14 kts | 63° |
| 2026-05-05 03:14 | -23.62068 | -46.66062 | 2593 ft | 0 kts | 146° |
| 2026-05-05 03:15 | -23.62077 | -46.66055 | 2598 ft | 14 kts | 146° |
| 2026-05-05 03:15 | -23.62388 | -46.65839 | 2611 ft | 91 kts | 148° |
| 2026-05-05 03:15 | -23.63130 | -46.65322 | 2666 ft | 156 kts | 145° |
| 2026-05-05 03:16 | -23.63992 | -46.64713 | 3484 ft | 138 kts | 143° |
| 2026-05-05 03:16 | -23.64738 | -46.63911 | 3747 ft | 170 kts | 115° |
| 2026-05-05 03:16 | -23.65112 | -46.62604 | 3960 ft | 193 kts | 106° |
| 2026-05-05 03:16 | -23.65724 | -46.61196 | 4250 ft | 218 kts | 117° |
| 2026-05-05 03:17 | -23.66537 | -46.59682 | 4604 ft | 244 kts | 120° |
| 2026-05-05 03:17 | -23.67462 | -46.58017 | 5096 ft | 268 kts | 121° |
| 2026-05-05 03:17 | -23.68448 | -46.56228 | 5828 ft | 280 kts | 121° |
| 2026-05-05 03:17 | -23.69441 | -46.54387 | 6699 ft | 287 kts | 121° |
| 2026-05-05 03:18 | -23.70458 | -46.52457 | 7586 ft | 292 kts | 121° |
| 2026-05-05 03:18 | -23.71356 | -46.50451 | 8500 ft | 297 kts | 109° |
| 2026-05-05 03:18 | -23.71760 | -46.48230 | 9416 ft | 302 kts | 93° |
| 2026-05-05 03:18 | -23.71621 | -46.45965 | 10316 ft | 305 kts | 81° |
| 2026-05-05 03:19 | -23.70899 | -46.41036 | 10993 ft | 351 kts | 81° |
| 2026-05-05 03:19 | -23.70516 | -46.38321 | 11174 ft | 374 kts | 81° |
| 2026-05-05 03:19 | -23.70115 | -46.35449 | 11466 ft | 390 kts | 82° |
| 2026-05-05 03:20 | -23.69699 | -46.32485 | 12056 ft | 396 kts | 82° |
| 2026-05-05 03:20 | -23.69279 | -46.29518 | 12709 ft | 400 kts | 82° |
| 2026-05-05 03:20 | -23.68848 | -46.26506 | 13348 ft | 404 kts | 82° |
| 2026-05-05 03:20 | -23.68409 | -46.23454 | 14003 ft | 409 kts | 82° |
| 2026-05-05 03:21 | -23.67974 | -46.20420 | 14564 ft | 413 kts | 82° |
| 2026-05-05 03:21 | -23.67530 | -46.17307 | 15133 ft | 417 kts | 82° |
| 2026-05-05 03:21 | -23.67083 | -46.14171 | 15700 ft | 421 kts | 82° |
| 2026-05-05 03:21 | -23.66628 | -46.11008 | 16265 ft | 425 kts | 82° |
| 2026-05-05 03:22 | -23.66166 | -46.07807 | 16830 ft | 428 kts | 82° |
| 2026-05-05 03:22 | -23.65703 | -46.04579 | 17386 ft | 432 kts | 82° |
| 2026-05-05 03:22 | -23.65238 | -46.01326 | 17918 ft | 436 kts | 82° |
| 2026-05-05 03:22 | -23.64770 | -45.98047 | 18428 ft | 440 kts | 82° |
| 2026-05-05 03:23 | -23.64295 | -45.94735 | 18871 ft | 443 kts | 82° |
| 2026-05-05 03:23 | -23.63812 | -45.91401 | 19316 ft | 447 kts | 82° |
| 2026-05-05 03:23 | -23.63322 | -45.88035 | 19760 ft | 450 kts | 82° |
| 2026-05-05 03:23 | -23.62828 | -45.84646 | 20204 ft | 453 kts | 82° |
| 2026-05-05 03:24 | -23.62333 | -45.81235 | 20642 ft | 457 kts | 82° |
| 2026-05-05 03:24 | -23.61833 | -45.77801 | 21067 ft | 460 kts | 82° |
| 2026-05-05 03:24 | -23.61328 | -45.74345 | 21471 ft | 463 kts | 82° |
| 2026-05-05 03:24 | -23.60820 | -45.70862 | 21866 ft | 467 kts | 82° |
| 2026-05-05 03:25 | -23.60309 | -45.67359 | 22256 ft | 470 kts | 82° |
| 2026-05-05 03:25 | -23.59796 | -45.63834 | 22627 ft | 473 kts | 82° |
| 2026-05-05 03:25 | -23.59286 | -45.60327 | 23022 ft | 476 kts | 82° |
| 2026-05-05 03:25 | -23.58766 | -45.56755 | 23386 ft | 479 kts | 82° |
| 2026-05-05 03:26 | -23.58239 | -45.53166 | 23725 ft | 482 kts | 82° |
| 2026-05-05 03:26 | -23.57705 | -45.49543 | 24030 ft | 485 kts | 82° |
| 2026-05-05 03:26 | -23.57147 | -45.45903 | 24327 ft | 488 kts | 81° |
| 2026-05-05 03:26 | -23.56489 | -45.42278 | 24626 ft | 491 kts | 79° |
| 2026-05-05 03:27 | -23.55731 | -45.38642 | 24918 ft | 494 kts | 77° |
| 2026-05-05 03:27 | -23.54910 | -45.34994 | 25212 ft | 496 kts | 77° |
| 2026-05-05 03:27 | -23.54071 | -45.31336 | 25492 ft | 499 kts | 77° |
| 2026-05-05 03:27 | -23.53238 | -45.27653 | 25764 ft | 502 kts | 77° |
| 2026-05-05 03:28 | -23.52424 | -45.23952 | 26028 ft | 504 kts | 77° |
| 2026-05-05 03:28 | -23.51623 | -45.20220 | 26303 ft | 507 kts | 78° |
| 2026-05-05 03:28 | -23.50832 | -45.16470 | 26569 ft | 509 kts | 78° |
| 2026-05-05 03:28 | -23.50044 | -45.12712 | 26861 ft | 510 kts | 78° |
| 2026-05-05 03:29 | -23.49249 | -45.08935 | 27109 ft | 512 kts | 78° |
| 2026-05-05 03:29 | -23.48447 | -45.05154 | 27220 ft | 511 kts | 78° |
| 2026-05-05 03:29 | -23.47639 | -45.01379 | 27186 ft | 511 kts | 78° |
| 2026-05-05 03:29 | -23.46839 | -44.97663 | 27201 ft | 510 kts | 77° |
| 2026-05-05 03:30 | -23.46026 | -44.93896 | 27199 ft | 511 kts | 77° |
| 2026-05-05 03:30 | -23.45205 | -44.90133 | 27197 ft | 512 kts | 77° |
| 2026-05-05 03:30 | -23.44366 | -44.86355 | 27168 ft | 510 kts | 77° |
| 2026-05-05 03:30 | -23.43535 | -44.82654 | 26909 ft | 495 kts | 77° |
| 2026-05-05 03:31 | -23.42727 | -44.79059 | 26686 ft | 481 kts | 77° |
| 2026-05-05 03:31 | -23.41944 | -44.75569 | 26442 ft | 467 kts | 77° |
| 2026-05-05 03:31 | -23.41188 | -44.72178 | 26195 ft | 455 kts | 77° |
| 2026-05-05 03:31 | -23.40453 | -44.68877 | 25951 ft | 443 kts | 77° |
| 2026-05-05 03:32 | -23.39732 | -44.65644 | 25714 ft | 434 kts | 77° |
| 2026-05-05 03:32 | -23.39028 | -44.62486 | 25485 ft | 425 kts | 77° |
| 2026-05-05 03:32 | -23.38335 | -44.59390 | 25253 ft | 417 kts | 77° |
| 2026-05-05 03:32 | -23.37651 | -44.56347 | 25022 ft | 409 kts | 77° |
| 2026-05-05 03:33 | -23.36979 | -44.53362 | 24784 ft | 401 kts | 77° |
| 2026-05-05 03:33 | -23.36327 | -44.50464 | 24425 ft | 398 kts | 77° |
| 2026-05-05 03:33 | -23.35664 | -44.47500 | 23838 ft | 403 kts | 77° |
| 2026-05-05 03:33 | -23.35009 | -44.44572 | 23533 ft | 396 kts | 77° |
| 2026-05-05 03:34 | -23.34233 | -44.41717 | 23115 ft | 391 kts | 69° |
| 2026-05-05 03:34 | -23.33129 | -44.39025 | 22515 ft | 387 kts | 65° |
| 2026-05-05 03:34 | -23.31993 | -44.36386 | 21933 ft | 383 kts | 65° |
| 2026-05-05 03:34 | -23.30865 | -44.33774 | 21366 ft | 379 kts | 65° |
| 2026-05-05 03:35 | -23.29750 | -44.31193 | 20785 ft | 375 kts | 65° |
| 2026-05-05 03:35 | -23.28647 | -44.28639 | 20130 ft | 370 kts | 65° |
| 2026-05-05 03:35 | -23.27560 | -44.26115 | 19492 ft | 366 kts | 65° |
| 2026-05-05 03:35 | -23.26486 | -44.23616 | 18868 ft | 362 kts | 64° |
| 2026-05-05 03:36 | -23.25422 | -44.21146 | 18218 ft | 359 kts | 64° |
| 2026-05-05 03:36 | -23.24370 | -44.18704 | 17531 ft | 355 kts | 64° |
| 2026-05-05 03:36 | -23.23340 | -44.16319 | 16905 ft | 350 kts | 64° |
| 2026-05-05 03:36 | -23.22309 | -44.13938 | 16278 ft | 346 kts | 64° |
| 2026-05-05 03:37 | -23.21290 | -44.11586 | 15660 ft | 342 kts | 64° |
| 2026-05-05 03:37 | -23.20287 | -44.09267 | 15057 ft | 337 kts | 65° |
| 2026-05-05 03:37 | -23.19290 | -44.06971 | 14457 ft | 334 kts | 64° |
| 2026-05-05 03:37 | -23.18272 | -44.04712 | 13851 ft | 331 kts | 63° |
| 2026-05-05 03:38 | -23.17248 | -44.02492 | 13216 ft | 327 kts | 63° |
| 2026-05-05 03:38 | -23.16221 | -44.00289 | 12504 ft | 327 kts | 62° |
| 2026-05-05 03:38 | -23.15207 | -43.98087 | 11876 ft | 324 kts | 64° |
| 2026-05-05 03:38 | -23.14246 | -43.95893 | 11294 ft | 320 kts | 64° |
| 2026-05-05 03:39 | -23.13314 | -43.93700 | 10677 ft | 319 kts | 65° |
| 2026-05-05 03:39 | -23.12402 | -43.91534 | 10190 ft | 312 kts | 65° |
| 2026-05-05 03:39 | -23.11505 | -43.89405 | 9644 ft | 306 kts | 65° |
| 2026-05-05 03:39 | -23.10623 | -43.87324 | 9520 ft | 304 kts | 65° |
| 2026-05-05 03:40 | -23.09737 | -43.85243 | 9369 ft | 302 kts | 65° |
| 2026-05-05 03:40 | -23.08854 | -43.83173 | 9224 ft | 302 kts | 65° |
| 2026-05-05 03:40 | -23.07963 | -43.81092 | 9062 ft | 304 kts | 65° |
| 2026-05-05 03:40 | -23.07071 | -43.79013 | 8899 ft | 302 kts | 65° |
| 2026-05-05 03:41 | -23.06184 | -43.76948 | 8736 ft | 301 kts | 65° |
| 2026-05-05 03:41 | -23.05307 | -43.74909 | 8578 ft | 302 kts | 65° |
| 2026-05-05 03:41 | -23.04420 | -43.72846 | 8417 ft | 300 kts | 65° |
| 2026-05-05 03:41 | -23.03541 | -43.70798 | 8261 ft | 299 kts | 65° |
| 2026-05-05 03:42 | -23.02659 | -43.68745 | 8044 ft | 300 kts | 65° |
| 2026-05-05 03:42 | -23.01772 | -43.66709 | 7760 ft | 297 kts | 64° |
| 2026-05-05 03:42 | -23.00886 | -43.64691 | 7481 ft | 295 kts | 65° |
| 2026-05-05 03:42 | -23.00006 | -43.62690 | 7171 ft | 293 kts | 65° |
| 2026-05-05 03:43 | -22.99127 | -43.60693 | 6866 ft | 290 kts | 65° |
| 2026-05-05 03:43 | -22.98267 | -43.58743 | 6686 ft | 282 kts | 65° |
| 2026-05-05 03:43 | -22.97433 | -43.56854 | 6521 ft | 271 kts | 65° |
| 2026-05-05 03:43 | -22.96637 | -43.55048 | 6358 ft | 259 kts | 65° |
| 2026-05-05 03:44 | -22.95877 | -43.53321 | 6221 ft | 247 kts | 65° |
| 2026-05-05 03:44 | -22.95143 | -43.51652 | 6077 ft | 244 kts | 65° |
| 2026-05-05 03:44 | -22.94665 | -43.50561 | 5977 ft | 242 kts | 65° |
| 2026-05-05 03:44 | -22.93956 | -43.48909 | 5700 ft | 239 kts | 65° |
| 2026-05-05 03:45 | -22.93266 | -43.47274 | 5433 ft | 237 kts | 65° |
| 2026-05-05 03:45 | -22.92588 | -43.45661 | 5178 ft | 233 kts | 65° |
| 2026-05-05 03:45 | -22.91924 | -43.44081 | 4920 ft | 228 kts | 65° |
| 2026-05-05 03:45 | -22.91273 | -43.42539 | 4690 ft | 222 kts | 64° |
| 2026-05-05 03:46 | -22.90632 | -43.41021 | 4499 ft | 220 kts | 64° |
| 2026-05-05 03:46 | -22.89996 | -43.39520 | 4309 ft | 218 kts | 63° |
| 2026-05-05 03:46 | -22.89364 | -43.38030 | 4118 ft | 217 kts | 64° |
| 2026-05-05 03:46 | -22.88746 | -43.36568 | 3952 ft | 208 kts | 64° |
| 2026-05-05 03:47 | -22.88354 | -43.35094 | 3747 ft | 200 kts | 78° |
| 2026-05-05 03:47 | -22.88332 | -43.33607 | 3573 ft | 196 kts | 90° |
| 2026-05-05 03:47 | -22.88390 | -43.32137 | 3401 ft | 194 kts | 90° |
| 2026-05-05 03:47 | -22.88438 | -43.30682 | 3223 ft | 193 kts | 89° |
| 2026-05-05 03:48 | -22.88482 | -43.29228 | 3041 ft | 192 kts | 89° |
| 2026-05-05 03:48 | -22.88527 | -43.27781 | 2871 ft | 192 kts | 89° |
| 2026-05-05 03:48 | -22.88631 | -43.26361 | 2699 ft | 192 kts | 101° |
| 2026-05-05 03:48 | -22.89091 | -43.25007 | 2468 ft | 189 kts | 110° |
| 2026-05-05 03:49 | -22.89573 | -43.23718 | 2229 ft | 179 kts | 110° |
| 2026-05-05 03:49 | -22.90008 | -43.22553 | 2018 ft | 155 kts | 110° |
| 2026-05-05 03:49 | -22.90398 | -43.21516 | 1827 ft | 141 kts | 111° |
| 2026-05-05 03:49 | -22.91023 | -43.20731 | 1521 ft | 138 kts | 147° |
| 2026-05-05 03:50 | -22.91864 | -43.20260 | 1283 ft | 135 kts | 150° |
| 2026-05-05 03:50 | -22.92680 | -43.19744 | 1158 ft | 136 kts | 144° |
| 2026-05-05 03:50 | -22.93404 | -43.19108 | 1023 ft | 133 kts | 129° |
| 2026-05-05 03:50 | -22.93935 | -43.18305 | 908 ft | 129 kts | 115° |
| 2026-05-05 03:51 | -22.94028 | -43.17368 | 739 ft | 126 kts | 71° |
| 2026-05-05 03:51 | -22.93507 | -43.16643 | 464 ft | 125 kts | 35° |
| 2026-05-05 03:51 | -22.92674 | -43.16322 | 260 ft | 127 kts | 14° |
| 2026-05-05 03:51 | -22.91784 | -43.16239 | 95 ft | 130 kts | 359° |
| 2026-05-05 03:52 | -22.91015 | -43.16282 | 28 ft | 75 kts | 356° |
| 2026-05-05 03:52 | -22.90811 | -43.16353 | 28 ft | 17 kts | 275° |
| 2026-05-05 03:52 | -22.90814 | -43.16487 | 30 ft | 18 kts | 267° |
| 2026-05-05 03:52 | -22.90888 | -43.16548 | 30 ft | 16 kts | 176° |
| 2026-05-05 03:53 | -22.91007 | -43.16541 | 30 ft | 19 kts | 176° |
| 2026-05-05 03:53 | -22.91131 | -43.16522 | 30 ft | 16 kts | 173° |
| 2026-05-05 03:53 | -22.91170 | -43.16572 | 30 ft | 5 kts | 266° |
| 2026-05-05 03:53 | -22.91171 | -43.16586 | 30 ft | 0 kts | 266° |